sensor_id;sensor_type;location;lat;lon;timestamp;P1;durP1;ratioP1;P2;durP2;ratioP2
20988;SDS011;10653;47.052;15.410;2023-12-20T00:01:36;22.88;;;13.40;;
20988;SDS011;10653;47.052;15.410;2023-12-20T00:04:02;19.42;;;13.25;;
20988;SDS011;10653;47.052;15.410;2023-12-20T00:06:29;17.70;;;16.00;;
20988;SDS011;10653;47.052;15.410;2023-12-20T00:08:55;17.45;;;15.13;;
20988;SDS011;10653;47.052;15.410;2023-12-20T00:11:22;17.00;;;15.30;;
20988;SDS011;10653;47.052;15.410;2023-12-20T00:13:48;17.98;;;15.98;;
20988;SDS011;10653;47.052;15.410;2023-12-20T00:16:14;18.33;;;16.00;;
20988;SDS011;10653;47.052;15.410;2023-12-20T00:18:40;18.33;;;15.07;;
20988;SDS011;10653;47.052;15.410;2023-12-20T00:21:06;22.53;;;17.93;;
20988;SDS011;10653;47.052;15.410;2023-12-20T00:23:32;23.17;;;19.17;;
20988;SDS011;10653;47.052;15.410;2023-12-20T00:25:58;20.50;;;18.33;;
20988;SDS011;10653;47.052;15.410;2023-12-20T00:28:24;23.37;;;17.93;;
20988;SDS011;10653;47.052;15.410;2023-12-20T00:30:50;20.40;;;16.70;;
20988;SDS011;10653;47.052;15.410;2023-12-20T00:33:16;18.53;;;15.90;;
20988;SDS011;10653;47.052;15.410;2023-12-20T00:35:42;21.13;;;17.27;;
20988;SDS011;10653;47.052;15.410;2023-12-20T00:38:08;22.53;;;19.93;;
20988;SDS011;10653;47.052;15.410;2023-12-20T00:40:35;22.48;;;18.95;;
20988;SDS011;10653;47.052;15.410;2023-12-20T00:43:01;27.05;;;20.45;;
20988;SDS011;10653;47.052;15.410;2023-12-20T00:45:27;22.80;;;19.92;;
20988;SDS011;10653;47.052;15.410;2023-12-20T00:47:53;23.05;;;18.20;;
20988;SDS011;10653;47.052;15.410;2023-12-20T00:50:19;24.60;;;20.35;;
20988;SDS011;10653;47.052;15.410;2023-12-20T00:52:46;24.27;;;21.00;;
20988;SDS011;10653;47.052;15.410;2023-12-20T00:55:12;23.80;;;19.38;;
20988;SDS011;10653;47.052;15.410;2023-12-20T00:57:39;29.80;;;23.45;;
20988;SDS011;10653;47.052;15.410;2023-12-20T01:00:05;32.55;;;25.60;;
20988;SDS011;10653;47.052;15.410;2023-12-20T01:02:31;28.83;;;22.60;;
20988;SDS011;10653;47.052;15.410;2023-12-20T01:04:57;23.70;;;21.30;;
20988;SDS011;10653;47.052;15.410;2023-12-20T01:07:23;28.10;;;23.17;;
20988;SDS011;10653;47.052;15.410;2023-12-20T01:09:49;26.20;;;22.33;;
20988;SDS011;10653;47.052;15.410;2023-12-20T01:12:15;27.73;;;22.73;;
20988;SDS011;10653;47.052;15.410;2023-12-20T01:14:41;32.20;;;23.30;;
20988;SDS011;10653;47.052;15.410;2023-12-20T01:17:07;26.20;;;21.17;;
20988;SDS011;10653;47.052;15.410;2023-12-20T01:19:33;28.38;;;23.35;;
20988;SDS011;10653;47.052;15.410;2023-12-20T01:21:59;25.13;;;21.92;;
20988;SDS011;10653;47.052;15.410;2023-12-20T01:24:25;25.60;;;20.38;;
20988;SDS011;10653;47.052;15.410;2023-12-20T01:26:51;35.70;;;24.53;;
20988;SDS011;10653;47.052;15.410;2023-12-20T01:29:17;28.67;;;23.83;;
20988;SDS011;10653;47.052;15.410;2023-12-20T01:31:43;30.00;;;25.08;;
20988;SDS011;10653;47.052;15.410;2023-12-20T01:34:09;30.80;;;23.63;;
20988;SDS011;10653;47.052;15.410;2023-12-20T01:36:35;29.75;;;23.92;;
20988;SDS011;10653;47.052;15.410;2023-12-20T01:39:01;28.10;;;23.30;;
20988;SDS011;10653;47.052;15.410;2023-12-20T01:41:27;26.48;;;22.15;;
20988;SDS011;10653;47.052;15.410;2023-12-20T01:43:53;29.87;;;22.10;;
20988;SDS011;10653;47.052;15.410;2023-12-20T01:46:20;26.97;;;22.53;;
20988;SDS011;10653;47.052;15.410;2023-12-20T01:48:46;26.23;;;21.35;;
20988;SDS011;10653;47.052;15.410;2023-12-20T01:51:12;24.92;;;20.10;;
20988;SDS011;10653;47.052;15.410;2023-12-20T01:53:38;26.92;;;22.33;;
20988;SDS011;10653;47.052;15.410;2023-12-20T01:56:05;26.88;;;20.98;;
20988;SDS011;10653;47.052;15.410;2023-12-20T01:58:31;28.08;;;21.35;;
20988;SDS011;10653;47.052;15.410;2023-12-20T02:00:57;30.60;;;22.13;;
20988;SDS011;10653;47.052;15.410;2023-12-20T02:03:23;29.55;;;22.25;;
20988;SDS011;10653;47.052;15.410;2023-12-20T02:05:50;30.92;;;22.83;;
20988;SDS011;10653;47.052;15.410;2023-12-20T02:08:16;25.80;;;22.33;;
20988;SDS011;10653;47.052;15.410;2023-12-20T02:10:42;25.87;;;20.93;;
20988;SDS011;10653;47.052;15.410;2023-12-20T02:13:08;27.77;;;21.98;;
20988;SDS011;10653;47.052;15.410;2023-12-20T02:15:34;26.35;;;23.52;;
20988;SDS011;10653;47.052;15.410;2023-12-20T02:18:02;28.40;;;24.48;;
20988;SDS011;10653;47.052;15.410;2023-12-20T02:20:28;31.95;;;23.23;;
20988;SDS011;10653;47.052;15.410;2023-12-20T02:22:54;24.53;;;21.57;;
20988;SDS011;10653;47.052;15.410;2023-12-20T02:25:20;30.23;;;24.38;;
20988;SDS011;10653;47.052;15.410;2023-12-20T02:27:46;31.27;;;23.10;;
20988;SDS011;10653;47.052;15.410;2023-12-20T02:30:14;23.75;;;20.23;;
20988;SDS011;10653;47.052;15.410;2023-12-20T02:32:40;26.40;;;21.35;;
20988;SDS011;10653;47.052;15.410;2023-12-20T02:35:06;23.35;;;20.85;;
20988;SDS011;10653;47.052;15.410;2023-12-20T02:37:32;25.52;;;21.63;;
20988;SDS011;10653;47.052;15.410;2023-12-20T02:39:59;26.17;;;21.65;;
20988;SDS011;10653;47.052;15.410;2023-12-20T02:42:25;24.80;;;20.50;;
20988;SDS011;10653;47.052;15.410;2023-12-20T02:44:51;21.70;;;18.80;;
20988;SDS011;10653;47.052;15.410;2023-12-20T02:47:17;29.13;;;21.90;;
20988;SDS011;10653;47.052;15.410;2023-12-20T02:49:43;26.95;;;21.75;;
20988;SDS011;10653;47.052;15.410;2023-12-20T02:52:09;26.90;;;20.37;;
20988;SDS011;10653;47.052;15.410;2023-12-20T02:54:35;24.50;;;19.47;;
20988;SDS011;10653;47.052;15.410;2023-12-20T02:57:01;25.97;;;19.80;;
20988;SDS011;10653;47.052;15.410;2023-12-20T02:59:27;25.10;;;19.63;;
20988;SDS011;10653;47.052;15.410;2023-12-20T03:01:53;26.20;;;19.43;;
20988;SDS011;10653;47.052;15.410;2023-12-20T03:04:19;25.40;;;20.67;;
20988;SDS011;10653;47.052;15.410;2023-12-20T03:06:45;26.75;;;20.35;;
20988;SDS011;10653;47.052;15.410;2023-12-20T03:09:11;28.27;;;19.60;;
20988;SDS011;10653;47.052;15.410;2023-12-20T03:11:37;26.85;;;20.30;;
20988;SDS011;10653;47.052;15.410;2023-12-20T03:14:03;23.52;;;18.17;;
20988;SDS011;10653;47.052;15.410;2023-12-20T03:16:29;25.33;;;19.30;;
20988;SDS011;10653;47.052;15.410;2023-12-20T03:18:56;28.55;;;18.20;;
20988;SDS011;10653;47.052;15.410;2023-12-20T03:21:22;22.42;;;17.35;;
20988;SDS011;10653;47.052;15.410;2023-12-20T03:23:48;21.47;;;16.67;;
20988;SDS011;10653;47.052;15.410;2023-12-20T03:26:14;18.23;;;15.70;;
20988;SDS011;10653;47.052;15.410;2023-12-20T03:28:40;22.73;;;17.02;;
20988;SDS011;10653;47.052;15.410;2023-12-20T03:31:06;21.63;;;15.85;;
20988;SDS011;10653;47.052;15.410;2023-12-20T03:33:32;22.15;;;15.10;;
20988;SDS011;10653;47.052;15.410;2023-12-20T03:35:58;22.33;;;16.37;;
20988;SDS011;10653;47.052;15.410;2023-12-20T03:38:24;20.48;;;15.43;;
20988;SDS011;10653;47.052;15.410;2023-12-20T03:40:50;20.30;;;17.93;;
20988;SDS011;10653;47.052;15.410;2023-12-20T03:43:16;21.83;;;18.40;;
20988;SDS011;10653;47.052;15.410;2023-12-20T03:45:42;28.37;;;17.20;;
20988;SDS011;10653;47.052;15.410;2023-12-20T03:48:08;22.00;;;18.10;;
20988;SDS011;10653;47.052;15.410;2023-12-20T03:50:34;25.88;;;17.80;;
20988;SDS011;10653;47.052;15.410;2023-12-20T03:53:01;23.60;;;17.73;;
20988;SDS011;10653;47.052;15.410;2023-12-20T03:55:27;22.42;;;17.95;;
20988;SDS011;10653;47.052;15.410;2023-12-20T03:57:53;23.50;;;19.13;;
20988;SDS011;10653;47.052;15.410;2023-12-20T04:00:19;27.93;;;20.80;;
20988;SDS011;10653;47.052;15.410;2023-12-20T04:02:45;23.33;;;17.63;;
20988;SDS011;10653;47.052;15.410;2023-12-20T04:05:11;25.38;;;18.33;;
20988;SDS011;10653;47.052;15.410;2023-12-20T04:07:37;21.80;;;18.45;;
20988;SDS011;10653;47.052;15.410;2023-12-20T04:10:04;22.75;;;17.55;;
20988;SDS011;10653;47.052;15.410;2023-12-20T04:12:30;20.77;;;17.27;;
20988;SDS011;10653;47.052;15.410;2023-12-20T04:14:56;22.38;;;18.65;;
20988;SDS011;10653;47.052;15.410;2023-12-20T04:17:22;19.00;;;17.00;;
20988;SDS011;10653;47.052;15.410;2023-12-20T04:19:49;21.75;;;15.50;;
20988;SDS011;10653;47.052;15.410;2023-12-20T04:22:15;18.33;;;15.55;;
20988;SDS011;10653;47.052;15.410;2023-12-20T04:24:41;20.70;;;16.20;;
20988;SDS011;10653;47.052;15.410;2023-12-20T04:27:07;17.35;;;15.45;;
20988;SDS011;10653;47.052;15.410;2023-12-20T04:29:34;22.35;;;14.75;;
20988;SDS011;10653;47.052;15.410;2023-12-20T04:32:00;17.08;;;14.27;;
20988;SDS011;10653;47.052;15.410;2023-12-20T04:34:26;18.50;;;14.80;;
20988;SDS011;10653;47.052;15.410;2023-12-20T04:36:52;19.70;;;16.73;;
20988;SDS011;10653;47.052;15.410;2023-12-20T04:39:18;20.13;;;16.92;;
20988;SDS011;10653;47.052;15.410;2023-12-20T04:41:44;22.50;;;17.67;;
20988;SDS011;10653;47.052;15.410;2023-12-20T04:44:10;19.60;;;17.60;;
20988;SDS011;10653;47.052;15.410;2023-12-20T04:46:36;28.63;;;20.40;;
20988;SDS011;10653;47.052;15.410;2023-12-20T04:49:02;22.20;;;16.87;;
20988;SDS011;10653;47.052;15.410;2023-12-20T04:51:28;22.55;;;17.70;;
20988;SDS011;10653;47.052;15.410;2023-12-20T04:53:54;21.80;;;17.83;;
20988;SDS011;10653;47.052;15.410;2023-12-20T04:56:20;19.03;;;17.03;;
20988;SDS011;10653;47.052;15.410;2023-12-20T04:58:46;28.67;;;22.30;;
20988;SDS011;10653;47.052;15.410;2023-12-20T05:01:13;29.75;;;25.30;;
20988;SDS011;10653;47.052;15.410;2023-12-20T05:03:39;26.88;;;21.42;;
20988;SDS011;10653;47.052;15.410;2023-12-20T05:06:05;21.97;;;18.17;;
20988;SDS011;10653;47.052;15.410;2023-12-20T05:08:31;22.08;;;18.10;;
20988;SDS011;10653;47.052;15.410;2023-12-20T05:10:57;29.73;;;19.13;;
20988;SDS011;10653;47.052;15.410;2023-12-20T05:13:23;22.90;;;17.53;;
20988;SDS011;10653;47.052;15.410;2023-12-20T05:15:49;23.92;;;16.67;;
20988;SDS011;10653;47.052;15.410;2023-12-20T05:18:16;25.77;;;17.30;;
20988;SDS011;10653;47.052;15.410;2023-12-20T05:20:42;18.65;;;15.65;;
20988;SDS011;10653;47.052;15.410;2023-12-20T05:23:07;20.33;;;16.20;;
20988;SDS011;10653;47.052;15.410;2023-12-20T05:25:33;22.07;;;17.20;;
20988;SDS011;10653;47.052;15.410;2023-12-20T05:27:59;19.70;;;16.83;;
20988;SDS011;10653;47.052;15.410;2023-12-20T05:30:25;19.40;;;16.07;;
20988;SDS011;10653;47.052;15.410;2023-12-20T05:32:51;22.73;;;19.57;;
20988;SDS011;10653;47.052;15.410;2023-12-20T05:35:18;21.63;;;17.75;;
20988;SDS011;10653;47.052;15.410;2023-12-20T05:37:44;20.75;;;17.30;;
20988;SDS011;10653;47.052;15.410;2023-12-20T05:40:10;22.48;;;17.13;;
20988;SDS011;10653;47.052;15.410;2023-12-20T05:42:37;22.17;;;17.10;;
20988;SDS011;10653;47.052;15.410;2023-12-20T05:45:03;30.30;;;22.55;;
20988;SDS011;10653;47.052;15.410;2023-12-20T05:47:29;23.45;;;18.55;;
20988;SDS011;10653;47.052;15.410;2023-12-20T05:49:55;19.20;;;15.40;;
20988;SDS011;10653;47.052;15.410;2023-12-20T05:52:21;18.40;;;15.90;;
20988;SDS011;10653;47.052;15.410;2023-12-20T05:54:47;22.40;;;17.33;;
20988;SDS011;10653;47.052;15.410;2023-12-20T05:57:13;18.33;;;16.40;;
20988;SDS011;10653;47.052;15.410;2023-12-20T05:59:39;24.33;;;19.10;;
20988;SDS011;10653;47.052;15.410;2023-12-20T06:02:05;27.13;;;21.40;;
20988;SDS011;10653;47.052;15.410;2023-12-20T06:04:31;22.67;;;19.52;;
20988;SDS011;10653;47.052;15.410;2023-12-20T06:06:57;24.10;;;19.35;;
20988;SDS011;10653;47.052;15.410;2023-12-20T06:09:24;23.77;;;20.92;;
20988;SDS011;10653;47.052;15.410;2023-12-20T06:11:50;20.77;;;18.50;;
20988;SDS011;10653;47.052;15.410;2023-12-20T06:14:16;25.33;;;20.33;;
20988;SDS011;10653;47.052;15.410;2023-12-20T06:16:42;27.17;;;21.13;;
20988;SDS011;10653;47.052;15.410;2023-12-20T06:19:08;26.33;;;21.60;;
20988;SDS011;10653;47.052;15.410;2023-12-20T06:21:34;23.80;;;20.60;;
20988;SDS011;10653;47.052;15.410;2023-12-20T06:24:00;22.57;;;19.17;;
20988;SDS011;10653;47.052;15.410;2023-12-20T06:26:26;22.92;;;18.45;;
20988;SDS011;10653;47.052;15.410;2023-12-20T06:28:52;22.50;;;19.65;;
20988;SDS011;10653;47.052;15.410;2023-12-20T06:31:18;24.00;;;18.10;;
20988;SDS011;10653;47.052;15.410;2023-12-20T06:33:44;17.65;;;15.75;;
20988;SDS011;10653;47.052;15.410;2023-12-20T06:36:11;20.55;;;18.45;;
20988;SDS011;10653;47.052;15.410;2023-12-20T06:38:38;20.55;;;17.95;;
20988;SDS011;10653;47.052;15.410;2023-12-20T06:41:04;25.80;;;23.23;;
20988;SDS011;10653;47.052;15.410;2023-12-20T06:43:30;22.67;;;20.38;;
20988;SDS011;10653;47.052;15.410;2023-12-20T06:45:57;18.17;;;16.30;;
20988;SDS011;10653;47.052;15.410;2023-12-20T06:48:23;22.55;;;17.25;;
20988;SDS011;10653;47.052;15.410;2023-12-20T06:50:49;19.75;;;17.38;;
20988;SDS011;10653;47.052;15.410;2023-12-20T06:53:15;19.37;;;17.27;;
20988;SDS011;10653;47.052;15.410;2023-12-20T06:55:41;18.70;;;16.70;;
20988;SDS011;10653;47.052;15.410;2023-12-20T06:58:07;18.40;;;16.60;;
20988;SDS011;10653;47.052;15.410;2023-12-20T07:00:33;19.88;;;17.15;;
20988;SDS011;10653;47.052;15.410;2023-12-20T07:03:00;19.50;;;17.30;;
20988;SDS011;10653;47.052;15.410;2023-12-20T07:05:26;24.90;;;20.98;;
20988;SDS011;10653;47.052;15.410;2023-12-20T07:07:52;20.55;;;18.35;;
20988;SDS011;10653;47.052;15.410;2023-12-20T07:10:18;17.98;;;16.08;;
20988;SDS011;10653;47.052;15.410;2023-12-20T07:12:44;21.15;;;18.90;;
20988;SDS011;10653;47.052;15.410;2023-12-20T07:15:10;24.27;;;18.53;;
20988;SDS011;10653;47.052;15.410;2023-12-20T07:17:37;22.67;;;17.50;;
20988;SDS011;10653;47.052;15.410;2023-12-20T07:20:03;19.48;;;16.45;;
20988;SDS011;10653;47.052;15.410;2023-12-20T07:22:30;21.10;;;18.33;;
20988;SDS011;10653;47.052;15.410;2023-12-20T07:24:59;20.05;;;16.83;;
20988;SDS011;10653;47.052;15.410;2023-12-20T07:27:26;20.50;;;16.48;;
20988;SDS011;10653;47.052;15.410;2023-12-20T07:29:52;19.98;;;16.65;;
20988;SDS011;10653;47.052;15.410;2023-12-20T07:32:18;25.80;;;19.55;;
20988;SDS011;10653;47.052;15.410;2023-12-20T07:34:44;19.33;;;17.10;;
20988;SDS011;10653;47.052;15.410;2023-12-20T07:37:10;23.27;;;18.63;;
20988;SDS011;10653;47.052;15.410;2023-12-20T07:39:39;20.90;;;17.48;;
20988;SDS011;10653;47.052;15.410;2023-12-20T07:42:06;20.73;;;18.38;;
20988;SDS011;10653;47.052;15.410;2023-12-20T07:44:32;24.55;;;18.83;;
20988;SDS011;10653;47.052;15.410;2023-12-20T07:46:58;22.37;;;18.27;;
20988;SDS011;10653;47.052;15.410;2023-12-20T07:49:24;23.67;;;18.20;;
20988;SDS011;10653;47.052;15.410;2023-12-20T07:51:50;18.00;;;15.95;;
20988;SDS011;10653;47.052;15.410;2023-12-20T07:54:16;21.60;;;16.90;;
20988;SDS011;10653;47.052;15.410;2023-12-20T07:56:42;18.83;;;16.20;;
20988;SDS011;10653;47.052;15.410;2023-12-20T07:59:08;22.65;;;17.75;;
20988;SDS011;10653;47.052;15.410;2023-12-20T08:01:34;19.85;;;17.30;;
20988;SDS011;10653;47.052;15.410;2023-12-20T08:04:01;19.05;;;15.93;;
20988;SDS011;10653;47.052;15.410;2023-12-20T08:06:27;19.70;;;16.07;;
20988;SDS011;10653;47.052;15.410;2023-12-20T08:08:53;20.00;;;15.63;;
20988;SDS011;10653;47.052;15.410;2023-12-20T08:11:19;16.95;;;15.13;;
20988;SDS011;10653;47.052;15.410;2023-12-20T08:13:45;18.92;;;14.57;;
20988;SDS011;10653;47.052;15.410;2023-12-20T08:16:11;16.42;;;14.50;;
20988;SDS011;10653;47.052;15.410;2023-12-20T08:18:38;18.02;;;14.93;;
20988;SDS011;10653;47.052;15.410;2023-12-20T08:21:04;19.95;;;14.55;;
20988;SDS011;10653;47.052;15.410;2023-12-20T08:23:32;15.32;;;13.65;;
20988;SDS011;10653;47.052;15.410;2023-12-20T08:26:02;17.15;;;14.40;;
20988;SDS011;10653;47.052;15.410;2023-12-20T08:28:28;15.93;;;13.68;;
20988;SDS011;10653;47.052;15.410;2023-12-20T08:30:56;18.70;;;14.60;;
20988;SDS011;10653;47.052;15.410;2023-12-20T08:33:22;17.05;;;14.95;;
20988;SDS011;10653;47.052;15.410;2023-12-20T08:35:48;17.53;;;14.97;;
20988;SDS011;10653;47.052;15.410;2023-12-20T08:38:14;19.40;;;15.60;;
20988;SDS011;10653;47.052;15.410;2023-12-20T08:40:40;17.60;;;15.45;;
20988;SDS011;10653;47.052;15.410;2023-12-20T08:43:06;18.65;;;15.85;;
20988;SDS011;10653;47.052;15.410;2023-12-20T08:45:32;21.25;;;16.65;;
20988;SDS011;10653;47.052;15.410;2023-12-20T08:47:58;18.90;;;16.90;;
20988;SDS011;10653;47.052;15.410;2023-12-20T08:50:25;22.77;;;18.67;;
20988;SDS011;10653;47.052;15.410;2023-12-20T08:52:51;21.48;;;18.15;;
20988;SDS011;10653;47.052;15.410;2023-12-20T08:55:17;19.42;;;17.50;;
20988;SDS011;10653;47.052;15.410;2023-12-20T08:57:43;22.75;;;19.60;;
20988;SDS011;10653;47.052;15.410;2023-12-20T09:00:09;22.27;;;18.35;;
20988;SDS011;10653;47.052;15.410;2023-12-20T09:02:35;22.25;;;18.60;;
20988;SDS011;10653;47.052;15.410;2023-12-20T09:05:02;22.45;;;18.40;;
20988;SDS011;10653;47.052;15.410;2023-12-20T09:07:28;22.88;;;17.63;;
20988;SDS011;10653;47.052;15.410;2023-12-20T09:09:56;24.58;;;20.88;;
20988;SDS011;10653;47.052;15.410;2023-12-20T09:12:22;26.92;;;22.25;;
20988;SDS011;10653;47.052;15.410;2023-12-20T09:14:49;30.00;;;25.07;;
20988;SDS011;10653;47.052;15.410;2023-12-20T09:17:15;30.75;;;25.00;;
20988;SDS011;10653;47.052;15.410;2023-12-20T09:19:42;32.40;;;26.27;;
20988;SDS011;10653;47.052;15.410;2023-12-20T09:22:11;38.92;;;26.65;;
20988;SDS011;10653;47.052;15.410;2023-12-20T09:24:37;34.22;;;26.83;;
20988;SDS011;10653;47.052;15.410;2023-12-20T09:27:04;31.17;;;25.02;;
20988;SDS011;10653;47.052;15.410;2023-12-20T09:29:30;34.15;;;25.77;;
20988;SDS011;10653;47.052;15.410;2023-12-20T09:31:56;34.45;;;25.60;;
20988;SDS011;10653;47.052;15.410;2023-12-20T09:34:22;33.33;;;26.13;;
20988;SDS011;10653;47.052;15.410;2023-12-20T09:36:49;32.08;;;26.83;;
20988;SDS011;10653;47.052;15.410;2023-12-20T09:39:18;38.17;;;26.30;;
20988;SDS011;10653;47.052;15.410;2023-12-20T09:41:45;31.10;;;24.67;;
20988;SDS011;10653;47.052;15.410;2023-12-20T09:44:15;32.15;;;25.63;;
20988;SDS011;10653;47.052;15.410;2023-12-20T09:46:43;37.45;;;25.17;;
20988;SDS011;10653;47.052;15.410;2023-12-20T09:49:10;33.88;;;28.33;;
20988;SDS011;10653;47.052;15.410;2023-12-20T09:51:36;33.15;;;27.40;;
20988;SDS011;10653;47.052;15.410;2023-12-20T09:54:03;35.90;;;26.37;;
20988;SDS011;10653;47.052;15.410;2023-12-20T09:56:29;30.23;;;23.42;;
20988;SDS011;10653;47.052;15.410;2023-12-20T09:58:55;36.13;;;25.15;;
20988;SDS011;10653;47.052;15.410;2023-12-20T10:01:22;35.28;;;24.70;;
20988;SDS011;10653;47.052;15.410;2023-12-20T10:03:48;31.15;;;24.02;;
20988;SDS011;10653;47.052;15.410;2023-12-20T10:06:15;33.03;;;22.83;;
20988;SDS011;10653;47.052;15.410;2023-12-20T10:08:41;31.10;;;22.63;;
20988;SDS011;10653;47.052;15.410;2023-12-20T10:11:07;31.70;;;22.38;;
20988;SDS011;10653;47.052;15.410;2023-12-20T10:13:33;29.75;;;21.25;;
20988;SDS011;10653;47.052;15.410;2023-12-20T10:15:59;24.33;;;19.60;;
20988;SDS011;10653;47.052;15.410;2023-12-20T10:18:25;26.10;;;20.13;;
20988;SDS011;10653;47.052;15.410;2023-12-20T10:20:54;24.63;;;20.48;;
20988;SDS011;10653;47.052;15.410;2023-12-20T10:23:20;30.43;;;21.77;;
20988;SDS011;10653;47.052;15.410;2023-12-20T10:25:55;28.23;;;21.70;;
20988;SDS011;10653;47.052;15.410;2023-12-20T10:28:22;26.80;;;20.15;;
20988;SDS011;10653;47.052;15.410;2023-12-20T10:30:52;27.88;;;18.50;;
20988;SDS011;10653;47.052;15.410;2023-12-20T10:33:24;24.42;;;17.70;;
20988;SDS011;10653;47.052;15.410;2023-12-20T10:35:51;22.70;;;17.70;;
20988;SDS011;10653;47.052;15.410;2023-12-20T10:38:17;23.10;;;16.97;;
20988;SDS011;10653;47.052;15.410;2023-12-20T10:40:45;23.40;;;16.30;;
20988;SDS011;10653;47.052;15.410;2023-12-20T10:43:11;17.87;;;13.80;;
20988;SDS011;10653;47.052;15.410;2023-12-20T10:45:37;15.77;;;14.18;;
20988;SDS011;10653;47.052;15.410;2023-12-20T10:48:03;16.70;;;14.38;;
20988;SDS011;10653;47.052;15.410;2023-12-20T10:50:30;17.80;;;14.10;;
20988;SDS011;10653;47.052;15.410;2023-12-20T10:52:58;19.20;;;13.77;;
20988;SDS011;10653;47.052;15.410;2023-12-20T10:55:25;17.63;;;14.73;;
20988;SDS011;10653;47.052;15.410;2023-12-20T10:57:51;18.73;;;14.20;;
20988;SDS011;10653;47.052;15.410;2023-12-20T11:00:18;17.63;;;13.80;;
20988;SDS011;10653;47.052;15.410;2023-12-20T11:02:44;17.07;;;13.53;;
20988;SDS011;10653;47.052;15.410;2023-12-20T11:07:50;17.33;;;15.53;;
20988;SDS011;10653;47.052;15.410;2023-12-20T11:10:22;19.85;;;15.55;;
20988;SDS011;10653;47.052;15.410;2023-12-20T11:12:51;24.20;;;14.97;;
20988;SDS011;10653;47.052;15.410;2023-12-20T11:15:19;18.50;;;14.80;;
20988;SDS011;10653;47.052;15.410;2023-12-20T11:17:45;21.57;;;15.33;;
20988;SDS011;10653;47.052;15.410;2023-12-20T11:20:11;17.67;;;14.53;;
20988;SDS011;10653;47.052;15.410;2023-12-20T11:22:38;18.53;;;14.33;;
20988;SDS011;10653;47.052;15.410;2023-12-20T11:25:10;18.33;;;15.03;;
20988;SDS011;10653;47.052;15.410;2023-12-20T11:27:37;19.47;;;14.70;;
20988;SDS011;10653;47.052;15.410;2023-12-20T11:30:06;19.67;;;14.17;;
20988;SDS011;10653;47.052;15.410;2023-12-20T11:32:33;22.20;;;15.43;;
20988;SDS011;10653;47.052;15.410;2023-12-20T11:35:00;23.33;;;13.90;;
20988;SDS011;10653;47.052;15.410;2023-12-20T11:37:31;16.63;;;14.30;;
20988;SDS011;10653;47.052;15.410;2023-12-20T11:40:06;17.17;;;13.37;;
20988;SDS011;10653;47.052;15.410;2023-12-20T11:42:49;21.93;;;13.30;;
20988;SDS011;10653;47.052;15.410;2023-12-20T11:45:23;17.83;;;14.60;;
20988;SDS011;10653;47.052;15.410;2023-12-20T11:47:50;18.73;;;14.10;;
20988;SDS011;10653;47.052;15.410;2023-12-20T11:50:16;17.40;;;14.07;;
20988;SDS011;10653;47.052;15.410;2023-12-20T11:52:43;23.33;;;17.73;;
20988;SDS011;10653;47.052;15.410;2023-12-20T11:55:09;26.97;;;21.77;;
20988;SDS011;10653;47.052;15.410;2023-12-20T11:57:35;18.13;;;14.40;;
20988;SDS011;10653;47.052;15.410;2023-12-20T12:00:02;17.30;;;13.07;;
20988;SDS011;10653;47.052;15.410;2023-12-20T12:02:28;17.07;;;14.63;;
20988;SDS011;10653;47.052;15.410;2023-12-20T12:04:54;14.47;;;12.30;;
20988;SDS011;10653;47.052;15.410;2023-12-20T12:07:21;19.40;;;14.40;;
20988;SDS011;10653;47.052;15.410;2023-12-20T12:09:47;19.03;;;13.10;;
20988;SDS011;10653;47.052;15.410;2023-12-20T12:12:13;18.53;;;14.17;;
20988;SDS011;10653;47.052;15.410;2023-12-20T12:14:40;17.90;;;14.17;;
20988;SDS011;10653;47.052;15.410;2023-12-20T12:17:12;19.20;;;14.17;;
20988;SDS011;10653;47.052;15.410;2023-12-20T12:19:41;20.53;;;13.83;;
20988;SDS011;10653;47.052;15.410;2023-12-20T12:22:11;21.53;;;15.60;;
20988;SDS011;10653;47.052;15.410;2023-12-20T12:24:45;18.40;;;13.80;;
20988;SDS011;10653;47.052;15.410;2023-12-20T12:27:11;24.00;;;15.93;;
20988;SDS011;10653;47.052;15.410;2023-12-20T12:29:37;18.43;;;14.23;;
20988;SDS011;10653;47.052;15.410;2023-12-20T12:32:04;20.00;;;14.20;;
20988;SDS011;10653;47.052;15.410;2023-12-20T12:34:31;19.53;;;13.80;;
20988;SDS011;10653;47.052;15.410;2023-12-20T12:36:57;23.90;;;14.60;;
20988;SDS011;10653;47.052;15.410;2023-12-20T12:39:24;25.43;;;14.70;;
20988;SDS011;10653;47.052;15.410;2023-12-20T12:41:50;19.90;;;13.80;;
20988;SDS011;10653;47.052;15.410;2023-12-20T12:44:16;20.47;;;14.87;;
20988;SDS011;10653;47.052;15.410;2023-12-20T12:46:43;21.90;;;15.37;;
20988;SDS011;10653;47.052;15.410;2023-12-20T12:49:09;22.90;;;13.43;;
20988;SDS011;10653;47.052;15.410;2023-12-20T12:51:35;20.20;;;14.77;;
20988;SDS011;10653;47.052;15.410;2023-12-20T12:54:01;25.90;;;15.40;;
20988;SDS011;10653;47.052;15.410;2023-12-20T12:56:27;21.73;;;14.33;;
20988;SDS011;10653;47.052;15.410;2023-12-20T12:58:53;20.53;;;13.70;;
20988;SDS011;10653;47.052;15.410;2023-12-20T13:01:20;29.73;;;16.53;;
20988;SDS011;10653;47.052;15.410;2023-12-20T13:03:46;24.97;;;14.27;;
20988;SDS011;10653;47.052;15.410;2023-12-20T13:06:12;20.10;;;15.50;;
20988;SDS011;10653;47.052;15.410;2023-12-20T13:08:38;26.47;;;17.47;;
20988;SDS011;10653;47.052;15.410;2023-12-20T13:11:04;23.10;;;16.43;;
20988;SDS011;10653;47.052;15.410;2023-12-20T13:13:30;29.50;;;15.30;;
20988;SDS011;10653;47.052;15.410;2023-12-20T13:15:56;29.53;;;15.77;;
20988;SDS011;10653;47.052;15.410;2023-12-20T13:18:23;24.80;;;16.23;;
20988;SDS011;10653;47.052;15.410;2023-12-20T13:20:49;25.33;;;15.70;;
20988;SDS011;10653;47.052;15.410;2023-12-20T13:23:15;25.30;;;15.33;;
20988;SDS011;10653;47.052;15.410;2023-12-20T13:25:43;20.40;;;13.70;;
20988;SDS011;10653;47.052;15.410;2023-12-20T13:28:10;27.60;;;16.27;;
20988;SDS011;10653;47.052;15.410;2023-12-20T13:30:37;24.00;;;14.97;;
20988;SDS011;10653;47.052;15.410;2023-12-20T13:33:03;22.47;;;16.30;;
20988;SDS011;10653;47.052;15.410;2023-12-20T13:35:30;23.90;;;15.83;;
20988;SDS011;10653;47.052;15.410;2023-12-20T13:37:56;21.03;;;15.40;;
20988;SDS011;10653;47.052;15.410;2023-12-20T13:40:23;23.93;;;16.33;;
20988;SDS011;10653;47.052;15.410;2023-12-20T13:42:49;21.23;;;16.20;;
20988;SDS011;10653;47.052;15.410;2023-12-20T13:45:15;25.57;;;15.70;;
20988;SDS011;10653;47.052;15.410;2023-12-20T13:47:41;22.07;;;16.17;;
20988;SDS011;10653;47.052;15.410;2023-12-20T13:50:07;23.83;;;16.50;;
20988;SDS011;10653;47.052;15.410;2023-12-20T13:52:33;22.83;;;15.63;;
20988;SDS011;10653;47.052;15.410;2023-12-20T13:54:59;23.33;;;16.87;;
20988;SDS011;10653;47.052;15.410;2023-12-20T13:57:25;29.07;;;18.63;;
20988;SDS011;10653;47.052;15.410;2023-12-20T13:59:51;27.17;;;19.03;;
20988;SDS011;10653;47.052;15.410;2023-12-20T14:02:17;26.87;;;16.77;;
20988;SDS011;10653;47.052;15.410;2023-12-20T14:04:43;21.10;;;17.40;;
20988;SDS011;10653;47.052;15.410;2023-12-20T14:07:09;27.33;;;19.00;;